Terminal Aerodrome Forecast
Issued by NWS

Home | Current Version | Previous Version | Text Only | Print | Product List | Glossary On
Versions: 1 2 3 4 5 6 7 8 9 10 11 12 13
000
FTUS45 KGJT 191741
TAFRIL
TAF
KRIL 191741Z 1918/2018 00000KT P6SM BKN090
     FM192000 26006KT P6SM -RA BKN045
     FM192200 28007KT 5SM -RA BKN040
     FM200200 29009KT 4SM -RASN OVC035
     FM200500 27008KT P6SM VCSH BKN035
     FM201200 VRB03KT P6SM VCFG SCT009 BKN050=

USA.gov is the U.S. government's official web portal to all federal, state and local government web resources and services.